Etusivu
METAR-TAF:

METAR-TAF

Lentoasemat :

Kelso, Washington, Yhdysvallat

Leveyspiiri: 46-07N, Pituuspiiri: 122-54W, korkeus merenpinnasta: 5 m

Tämänhetkinen sää

Tämä raportti tehtiin 45 minuuttia sitten, kello 15.56 UTC
Tuuli 5 kn etelästä
Lämpötila 12°C
Kosteus 88%
Ilmanpaine 1008 hPa
Näkyvyys: 16.1 km
Muutamia pilviä 800 ft:n korkeudessa
Pilvistä 2500 ft:n korkeudessa

METAR: KKLS 191556Z AUTO 17005KT 10SM FEW008 OVC025 12/10 A2977 RMK AO2 RAE01 SLP086 P0000 T01220100

Aika: 09:41 (16:41 UTC)


TAF: puuttuu

Säähavainnot ja -ennusteet yli 4000 lentoasemalta (METAR- ja TAF-raportit).

Käytössä olevat sääasemat on merkitty karttaan keltaisilla ja punaisilla pisteillä.

Aseta hiiri pisteen päälle nähdäksesi sääaseman nimen.

Klikkaa sitten nähdäksesi säähavainnot ja -ennusteet.

Kartan vaihtaminen: klikkaa mustalla rastilla varustettuja vihreitä pisteitä, niin voit zoomata sisään; viivalla varustettua vihreää pistettä, niin voit zoomata ulos tai vihreitä nuolia, niin pääset viereisille kartoille.


METAR-TAF: